Etusivu
METAR-TAF:

METAR-TAF

Lentoasemat :

Eagle River Union Airport

Eagle River, Wisconsin, Yhdysvallat

Leveyspiiri: 45-55-54N, Pituuspiiri: 089-16-09W, korkeus merenpinnasta: 501 m

Tämänhetkinen sää

Tämä raportti tehtiin 21 minuuttia sitten, kello 02.15 UTC
Tuuli 9 kn luoteesta puuskistuen 16 kn:hen
Lämpötila -1°C
Kosteus 80%
Ilmanpaine 1011 hPa
Näkyvyys: 16.1 km
Pilvistä 1700 ft:n korkeudessa
heikkoa lumisadetta

METAR: KEGV 100215Z AUTO 31009G16KT 10SM -SN OVC017 M01/M04 A2984 RMK AO2 T10111045

Aika: 21:36 (02:36 UTC)


TAF: puuttuu

Säähavainnot ja -ennusteet yli 4000 lentoasemalta (METAR- ja TAF-raportit).

Käytössä olevat sääasemat on merkitty karttaan keltaisilla ja punaisilla pisteillä.

Aseta hiiri pisteen päälle nähdäksesi sääaseman nimen.

Klikkaa sitten nähdäksesi säähavainnot ja -ennusteet.

Kartan vaihtaminen: klikkaa mustalla rastilla varustettuja vihreitä pisteitä, niin voit zoomata sisään; viivalla varustettua vihreää pistettä, niin voit zoomata ulos tai vihreitä nuolia, niin pääset viereisille kartoille.


METAR-TAF: